Time;durP1;ratioP1;P1;durP2;ratioP2;P2;SDS_P1;SDS_P2;PMS_P1;PMS_P2;Temp;Humidity;BMP_temperature;BMP_pressure;BME280_temperature;BME280_humidity;BME280_pressure;Samples;Min_cycle;Max_cycle;Signal;HPM_P1;HPM_P2
2022/07/05 00:02:16;;;;;;;4.30;3.90;;;;;;;;;;5018912;28;20045;-79
2022/07/05 00:04:42;;;;;;;7.72;4.40;;;;;;;;;;5017875;28;20033;-80
2022/07/05 00:07:21;;;;;;;6.95;3.83;;;;;;;;;;5020302;28;20045;-86
2022/07/05 00:09:47;;;;;;;5.57;4.10;;;;;;;;;;5022263;28;20151;-84
2022/07/05 00:12:13;;;;;;;8.48;4.32;;;;;;;;;;5022024;28;20022;-81
2022/07/05 00:14:39;;;;;;;5.20;4.25;;;;;;;;;;5025206;28;20465;-78
2022/07/05 00:17:04;;;;;;;5.35;4.03;;;;;;;;;;5004236;28;20404;-78
2022/07/05 00:19:30;;;;;;;5.38;4.88;;;;;;;;;;4999123;28;20091;-78
2022/07/05 00:21:55;;;;;;;6.72;4.60;;;;;;;;;;5003919;28;20084;-82
2022/07/05 00:24:20;;;;;;;5.75;4.78;;;;;;;;;;5020102;28;20110;-78
2022/07/05 00:26:46;;;;;;;5.03;4.13;;;;;;;;;;5021696;28;20124;-86
2022/07/05 00:29:11;;;;;;;5.38;4.25;;;;;;;;;;5019228;28;20081;-78
2022/07/05 00:31:36;;;;;;;6.97;4.13;;;;;;;;;;5003658;28;20063;-87
2022/07/05 00:34:01;;;;;;;7.22;4.72;;;;;;;;;;5020707;28;20052;-88
2022/07/05 00:36:27;;;;;;;5.72;4.50;;;;;;;;;;5001973;28;20033;-78
2022/07/05 00:38:52;;;;;;;7.15;4.78;;;;;;;;;;5018525;28;20062;-87
2022/07/05 00:41:20;;;;;;;7.72;4.55;;;;;;;;;;5002743;28;20034;-87
2022/07/05 00:44:14;;;;;;;6.20;4.55;;;;;;;;;;5001321;28;20029;-80
2022/07/05 00:46:39;;;;;;;7.70;4.68;;;;;;;;;;4996579;28;20029;-78
2022/07/05 00:49:05;;;;;;;6.05;5.03;;;;;;;;;;5019392;28;20028;-78
2022/07/05 00:51:31;;;;;;;5.10;3.95;;;;;;;;;;5000086;28;20219;-86
2022/07/05 00:53:56;;;;;;;6.10;4.60;;;;;;;;;;5002338;28;20927;-86
2022/07/05 00:56:23;;;;;;;5.68;4.53;;;;;;;;;;5016277;28;20041;-79
2022/07/05 00:58:48;;;;;;;4.63;3.95;;;;;;;;;;5002185;28;20033;-77
2022/07/05 01:01:15;;;;;;;5.25;3.92;;;;;;;;;;5018720;28;20421;-84
2022/07/05 01:03:40;;;;;;;6.10;4.57;;;;;;;;;;5017866;28;20049;-77
2022/07/05 01:06:06;;;;;;;6.07;4.70;;;;;;;;;;5016604;28;21188;-86
2022/07/05 01:08:32;;;;;;;6.80;4.57;;;;;;;;;;5000270;28;20694;-77
2022/07/05 01:10:57;;;;;;;9.65;4.60;;;;;;;;;;5017800;28;20504;-88
2022/07/05 01:13:24;;;;;;;5.78;4.50;;;;;;;;;;5021597;28;20021;-79
2022/07/05 01:15:49;;;;;;;6.82;5.13;;;;;;;;;;5019172;28;20477;-80
2022/07/05 01:18:14;;;;;;;5.28;4.72;;;;;;;;;;5016077;28;20044;-78
2022/07/05 01:20:40;;;;;;;12.05;6.60;;;;;;;;;;5016133;28;20087;-80
2022/07/05 01:23:06;;;;;;;5.20;4.22;;;;;;;;;;5019572;28;20465;-87
2022/07/05 01:25:31;;;;;;;6.63;5.15;;;;;;;;;;5000764;28;20036;-78
2022/07/05 01:28:00;;;;;;;6.55;4.70;;;;;;;;;;5000088;28;20030;-79
2022/07/05 01:30:28;;;;;;;5.93;4.38;;;;;;;;;;5017640;28;20041;-84
2022/07/05 01:32:53;;;;;;;7.93;4.72;;;;;;;;;;4999234;28;20393;-87
2022/07/05 01:35:23;;;;;;;6.43;5.60;;;;;;;;;;5020242;28;20032;-78
2022/07/05 01:37:48;;;;;;;4.28;3.88;;;;;;;;;;4999752;28;20037;-79
2022/07/05 01:40:14;;;;;;;7.43;4.78;;;;;;;;;;5019211;28;20048;-79
2022/07/05 01:42:39;;;;;;;5.18;4.68;;;;;;;;;;5018589;28;20351;-86
2022/07/05 01:45:05;;;;;;;9.70;5.22;;;;;;;;;;5013615;28;20032;-87
2022/07/05 01:47:32;;;;;;;7.10;5.00;;;;;;;;;;4998915;28;20496;-79
2022/07/05 01:49:58;;;;;;;7.55;5.85;;;;;;;;;;5014449;28;20034;-88
2022/07/05 01:52:24;;;;;;;8.48;5.53;;;;;;;;;;5016595;28;20026;-87
2022/07/05 01:54:50;;;;;;;7.18;5.57;;;;;;;;;;4997354;28;20025;-78
2022/07/05 01:57:15;;;;;;;7.30;6.03;;;;;;;;;;4998751;28;20547;-86
2022/07/05 01:59:41;;;;;;;6.88;6.10;;;;;;;;;;5011493;28;20044;-79
2022/07/05 02:02:07;;;;;;;8.57;6.57;;;;;;;;;;5000549;28;20037;-88
2022/07/05 02:04:36;;;;;;;6.80;6.10;;;;;;;;;;4996394;28;20026;-85
2022/07/05 02:07:05;;;;;;;8.90;6.28;;;;;;;;;;5012388;28;20033;-87
2022/07/05 02:09:30;;;;;;;7.88;6.72;;;;;;;;;;4997345;28;20026;-79
2022/07/05 02:11:55;;;;;;;7.20;6.50;;;;;;;;;;5013107;28;20091;-87
2022/07/05 02:14:21;;;;;;;6.88;6.18;;;;;;;;;;5013714;28;20026;-88
2022/07/05 02:16:46;;;;;;;8.02;6.00;;;;;;;;;;4994077;28;20329;-79
2022/07/05 02:19:11;;;;;;;6.55;5.55;;;;;;;;;;5018622;28;20116;-88
2022/07/05 02:21:37;;;;;;;8.32;5.60;;;;;;;;;;5012018;28;20432;-85
2022/07/05 02:24:02;;;;;;;7.57;6.13;;;;;;;;;;4998353;28;20389;-81
2022/07/05 02:26:27;;;;;;;6.72;6.13;;;;;;;;;;4995806;28;20017;-86
2022/07/05 02:28:53;;;;;;;8.35;5.60;;;;;;;;;;5015326;28;20481;-79
2022/07/05 02:31:20;;;;;;;13.40;7.85;;;;;;;;;;5014933;28;21464;-77
2022/07/05 02:33:45;;;;;;;6.20;5.43;;;;;;;;;;5015558;28;20086;-86
2022/07/05 02:36:11;;;;;;;6.15;5.10;;;;;;;;;;5015258;28;20404;-82
2022/07/05 02:38:36;;;;;;;6.65;4.95;;;;;;;;;;5015890;28;20033;-80
2022/07/05 02:41:06;;;;;;;8.15;4.90;;;;;;;;;;5016190;28;20037;-78
2022/07/05 02:43:31;;;;;;;5.72;4.70;;;;;;;;;;5015214;28;20032;-87
2022/07/05 02:45:56;;;;;;;9.70;5.55;;;;;;;;;;5012448;28;20029;-82
2022/07/05 02:48:22;;;;;;;5.60;5.00;;;;;;;;;;5014897;28;20622;-79
2022/07/05 02:50:47;;;;;;;8.05;4.88;;;;;;;;;;5016776;28;20036;-79
2022/07/05 02:53:12;;;;;;;9.65;4.60;;;;;;;;;;5016302;28;20162;-78
2022/07/05 02:55:38;;;;;;;9.65;4.95;;;;;;;;;;4999169;28;20300;-80
2022/07/05 02:58:03;;;;;;;4.78;4.22;;;;;;;;;;4996747;28;20074;-79
2022/07/05 03:00:28;;;;;;;6.50;5.15;;;;;;;;;;5013077;28;20037;-78
2022/07/05 03:02:53;;;;;;;5.00;4.22;;;;;;;;;;5007155;28;20484;-79
2022/07/05 03:05:19;;;;;;;5.95;4.53;;;;;;;;;;5005308;28;20370;-77
2022/07/05 03:07:44;;;;;;;6.75;4.68;;;;;;;;;;4997420;28;20046;-85
2022/07/05 03:10:09;;;;;;;6.40;4.57;;;;;;;;;;4999019;28;20677;-86
2022/07/05 03:12:34;;;;;;;7.18;5.10;;;;;;;;;;5002891;28;20032;-83
2022/07/05 03:15:00;;;;;;;7.32;4.78;;;;;;;;;;5015294;28;20387;-85
2022/07/05 03:17:25;;;;;;;5.88;4.63;;;;;;;;;;5020947;28;20450;-85
2022/07/05 03:19:50;;;;;;;6.07;5.47;;;;;;;;;;5017952;28;20432;-81
2022/07/05 03:22:18;;;;;;;6.70;4.45;;;;;;;;;;5019055;28;20465;-77
2022/07/05 03:24:43;;;;;;;9.13;5.68;;;;;;;;;;5000932;28;20037;-79
2022/07/05 03:27:09;;;;;;;8.00;5.35;;;;;;;;;;5002600;28;20018;-87
2022/07/05 03:29:34;;;;;;;10.25;5.90;;;;;;;;;;5004746;28;20382;-79
2022/07/05 03:31:59;;;;;;;12.90;5.28;;;;;;;;;;5000975;28;20115;-78
2022/07/05 03:34:24;;;;;;;8.00;5.05;;;;;;;;;;5016767;28;20149;-79
2022/07/05 03:36:50;;;;;;;7.70;5.97;;;;;;;;;;5001007;28;20034;-78
2022/07/05 03:39:15;;;;;;;8.07;5.10;;;;;;;;;;5017682;28;20026;-80
2022/07/05 03:41:40;;;;;;;7.15;5.68;;;;;;;;;;4998038;28;20091;-78
2022/07/05 03:44:06;;;;;;;6.15;4.72;;;;;;;;;;4998684;28;20634;-88
2022/07/05 03:46:31;;;;;;;7.63;5.07;;;;;;;;;;5001336;28;20014;-86
2022/07/05 03:48:56;;;;;;;7.57;5.30;;;;;;;;;;5005618;28;20037;-79
2022/07/05 03:51:21;;;;;;;7.50;5.28;;;;;;;;;;5004206;28;20116;-82
2022/07/05 03:53:46;;;;;;;10.10;5.97;;;;;;;;;;5002372;28;20072;-86
2022/07/05 03:56:12;;;;;;;6.55;5.00;;;;;;;;;;5002749;28;20515;-86
2022/07/05 03:58:37;;;;;;;9.15;6.03;;;;;;;;;;5004115;28;20456;-85
2022/07/05 04:01:02;;;;;;;8.10;5.13;;;;;;;;;;4999587;28;20401;-86
2022/07/05 04:03:27;;;;;;;8.70;5.97;;;;;;;;;;5017331;28;20137;-84
2022/07/05 04:05:53;;;;;;;11.52;7.25;;;;;;;;;;5016956;28;20125;-78
2022/07/05 04:08:18;;;;;;;7.38;5.35;;;;;;;;;;5001556;28;20053;-86
2022/07/05 04:10:43;;;;;;;9.57;5.82;;;;;;;;;;5003208;28;20026;-78
2022/07/05 04:13:08;;;;;;;13.98;6.82;;;;;;;;;;5000070;28;20018;-82
2022/07/05 04:15:34;;;;;;;10.00;7.18;;;;;;;;;;4999229;28;20125;-79
2022/07/05 04:17:59;;;;;;;6.78;5.13;;;;;;;;;;5001218;28;20033;-85
2022/07/05 04:20:24;;;;;;;9.43;5.75;;;;;;;;;;5006592;28;20038;-87
2022/07/05 04:22:50;;;;;;;10.48;6.05;;;;;;;;;;5017407;28;20030;-86
2022/07/05 04:25:16;;;;;;;7.75;5.00;;;;;;;;;;5000359;28;20042;-87
2022/07/05 04:27:41;;;;;;;6.40;4.72;;;;;;;;;;5004388;28;20030;-86
2022/07/05 04:30:07;;;;;;;7.47;5.60;;;;;;;;;;5017087;28;20033;-79
2022/07/05 04:32:33;;;;;;;8.27;6.20;;;;;;;;;;5001855;28;20029;-78
2022/07/05 04:34:58;;;;;;;11.05;5.80;;;;;;;;;;5000874;28;20041;-79
2022/07/05 04:37:24;;;;;;;9.73;5.72;;;;;;;;;;5001926;28;20604;-78
2022/07/05 04:39:49;;;;;;;10.13;5.25;;;;;;;;;;5001749;28;20453;-78
2022/07/05 04:42:14;;;;;;;7.50;5.90;;;;;;;;;;5002648;28;20789;-84
2022/07/05 04:44:39;;;;;;;10.07;6.80;;;;;;;;;;5003476;28;20529;-78
2022/07/05 04:47:05;;;;;;;7.43;5.75;;;;;;;;;;5015812;28;20036;-78
2022/07/05 04:49:30;;;;;;;10.73;5.15;;;;;;;;;;5000861;28;20028;-86
2022/07/05 04:51:55;;;;;;;13.13;7.72;;;;;;;;;;5000881;28;20026;-79
2022/07/05 04:54:20;;;;;;;9.02;6.53;;;;;;;;;;5001400;28;20080;-78
2022/07/05 04:56:46;;;;;;;11.15;7.85;;;;;;;;;;5013624;28;20721;-84
2022/07/05 04:59:11;;;;;;;9.88;5.85;;;;;;;;;;4999270;28;20113;-86
2022/07/05 05:01:36;;;;;;;8.18;6.13;;;;;;;;;;4986412;28;20107;-85
2022/07/05 05:04:01;;;;;;;10.48;6.97;;;;;;;;;;5014993;28;20037;-86
2022/07/05 05:06:27;;;;;;;6.65;5.95;;;;;;;;;;5018410;28;20018;-83
2022/07/05 05:08:52;;;;;;;12.77;7.80;;;;;;;;;;5003175;28;20045;-87
2022/07/05 05:11:17;;;;;;;12.32;6.93;;;;;;;;;;5017689;28;20163;-86
2022/07/05 05:13:45;;;;;;;11.25;7.03;;;;;;;;;;5002175;28;20119;-86
2022/07/05 05:16:10;;;;;;;12.35;7.28;;;;;;;;;;5018548;28;20030;-78
2022/07/05 05:18:35;;;;;;;8.80;6.53;;;;;;;;;;5020726;28;20086;-85
2022/07/05 05:21:01;;;;;;;9.25;6.97;;;;;;;;;;5008674;28;20497;-78
2022/07/05 05:23:26;;;;;;;14.40;9.48;;;;;;;;;;5020792;28;20090;-78
2022/07/05 05:25:51;;;;;;;10.68;8.20;;;;;;;;;;5017968;28;20416;-80
2022/07/05 05:28:17;;;;;;;10.07;7.60;;;;;;;;;;5021427;28;20054;-85
2022/07/05 05:30:42;;;;;;;12.15;7.32;;;;;;;;;;5002496;28;20025;-86
2022/07/05 05:33:07;;;;;;;11.15;7.47;;;;;;;;;;5011298;28;20032;-84
2022/07/05 05:35:32;;;;;;;8.95;6.72;;;;;;;;;;5020901;28;20307;-80
2022/07/05 05:37:58;;;;;;;9.98;7.45;;;;;;;;;;5022791;28;20370;-82
2022/07/05 05:40:23;;;;;;;12.65;8.05;;;;;;;;;;5023630;28;20155;-78
2022/07/05 05:42:51;;;;;;;8.60;6.07;;;;;;;;;;5023243;28;20393;-78
2022/07/05 05:45:16;;;;;;;11.13;8.43;;;;;;;;;;5021775;28;20034;-84
2022/07/05 05:48:02;;;;;;;12.85;9.00;;;;;;;;;;5018573;28;20397;-86
2022/07/05 05:50:28;;;;;;;11.75;7.43;;;;;;;;;;5019167;28;20041;-85
2022/07/05 05:52:54;;;;;;;9.55;7.75;;;;;;;;;;5025900;28;20108;-80
2022/07/05 05:55:19;;;;;;;10.93;6.75;;;;;;;;;;5019222;28;20516;-85
2022/07/05 05:57:45;;;;;;;6.90;5.43;;;;;;;;;;5001970;28;20026;-79
2022/07/05 06:00:17;;;;;;;9.55;6.68;;;;;;;;;;5020488;28;20083;-80
2022/07/05 06:02:42;;;;;;;7.65;6.07;;;;;;;;;;4996922;28;20050;-79
2022/07/05 06:05:08;;;;;;;7.03;6.15;;;;;;;;;;5000186;28;20028;-87
2022/07/05 06:07:50;;;;;;;11.00;6.75;;;;;;;;;;4993589;28;20560;-79
2022/07/05 06:10:19;;;;;;;7.13;4.75;;;;;;;;;;5013994;28;20448;-81
2022/07/05 06:12:45;;;;;;;7.30;5.00;;;;;;;;;;4996718;28;20651;-85
2022/07/05 06:15:14;;;;;;;5.85;3.13;;;;;;;;;;5000498;28;20737;-80
2022/07/05 06:17:39;;;;;;;4.32;3.33;;;;;;;;;;5009684;28;20034;-83
2022/07/05 06:20:06;;;;;;;6.07;3.42;;;;;;;;;;5005463;28;20052;-82
2022/07/05 06:22:31;;;;;;;6.95;3.92;;;;;;;;;;5005768;28;20034;-81
2022/07/05 06:24:56;;;;;;;6.60;3.78;;;;;;;;;;5002766;28;20041;-85
2022/07/05 06:27:21;;;;;;;5.73;4.30;;;;;;;;;;5000915;28;20022;-86
2022/07/05 06:29:47;;;;;;;7.45;4.20;;;;;;;;;;5009175;28;20284;-80
2022/07/05 06:32:12;;;;;;;7.78;4.43;;;;;;;;;;5000276;28;20188;-77
2022/07/05 06:34:37;;;;;;;9.07;4.03;;;;;;;;;;5012884;28;20030;-85
2022/07/05 06:37:02;;;;;;;11.27;4.50;;;;;;;;;;5002642;28;20029;-78
2022/07/05 06:39:27;;;;;;;6.03;4.35;;;;;;;;;;5007247;28;20733;-77
2022/07/05 06:41:56;;;;;;;9.40;4.95;;;;;;;;;;5001066;28;20026;-81
2022/07/05 06:44:24;;;;;;;7.50;5.20;;;;;;;;;;5002100;28;20037;-78
2022/07/05 06:46:49;;;;;;;11.07;5.57;;;;;;;;;;5000240;28;20426;-77
2022/07/05 06:49:15;;;;;;;12.93;5.68;;;;;;;;;;5004387;28;20107;-85
2022/07/05 06:51:40;;;;;;;7.28;4.53;;;;;;;;;;5005157;28;20033;-85
2022/07/05 06:54:05;;;;;;;6.78;4.63;;;;;;;;;;5007340;28;20036;-79
2022/07/05 06:56:30;;;;;;;8.63;4.75;;;;;;;;;;5021136;28;20030;-80
2022/07/05 06:58:55;;;;;;;7.35;4.72;;;;;;;;;;5008163;28;20033;-79
2022/07/05 07:01:24;;;;;;;6.70;3.70;;;;;;;;;;5009785;28;20052;-77
2022/07/05 07:03:49;;;;;;;8.27;4.18;;;;;;;;;;5025203;28;20077;-77
2022/07/05 07:06:15;;;;;;;11.07;5.13;;;;;;;;;;5025635;28;21759;-86
2022/07/05 07:11:25;;;;;;;7.47;4.10;;;;;;;;;;5027504;28;20084;-85
2022/07/05 07:13:53;;;;;;;6.10;4.00;;;;;;;;;;5028419;28;20533;-79
2022/07/05 07:16:18;;;;;;;5.35;2.90;;;;;;;;;;5025299;28;20036;-79
2022/07/05 07:18:43;;;;;;;3.38;1.90;;;;;;;;;;5037212;28;20033;-79
2022/07/05 07:21:09;;;;;;;5.28;2.90;;;;;;;;;;5027199;28;20021;-78
2022/07/05 07:23:35;;;;;;;3.08;2.53;;;;;;;;;;5026011;28;20033;-80
2022/07/05 07:26:00;;;;;;;3.53;1.95;;;;;;;;;;5029049;28;20261;-79
2022/07/05 07:28:25;;;;;;;7.82;2.50;;;;;;;;;;5028931;28;20025;-79
2022/07/05 07:30:51;;;;;;;3.40;2.35;;;;;;;;;;5008607;28;20025;-80
2022/07/05 07:33:16;;;;;;;4.47;2.50;;;;;;;;;;5028111;28;20070;-86
2022/07/05 07:35:41;;;;;;;2.78;1.92;;;;;;;;;;5027863;28;20069;-86
2022/07/05 07:38:12;;;;;;;3.75;2.22;;;;;;;;;;5027582;28;20115;-79
2022/07/05 07:40:37;;;;;;;6.25;2.40;;;;;;;;;;5008372;28;20041;-79
2022/07/05 07:43:02;;;;;;;6.45;2.47;;;;;;;;;;5026471;28;20509;-86
2022/07/05 07:45:31;;;;;;;6.05;2.03;;;;;;;;;;5027412;28;20022;-86
2022/07/05 07:47:59;;;;;;;3.88;2.00;;;;;;;;;;5027018;28;20005;-85
2022/07/05 07:50:24;;;;;;;3.42;1.90;;;;;;;;;;5012263;28;20025;-83
2022/07/05 07:52:50;;;;;;;5.63;2.00;;;;;;;;;;5022709;28;20055;-87
2022/07/05 07:55:15;;;;;;;4.47;2.60;;;;;;;;;;5024561;28;20029;-86
2022/07/05 07:57:40;;;;;;;4.55;3.20;;;;;;;;;;5029682;28;20032;-80
2022/07/05 08:00:09;;;;;;;4.85;2.38;;;;;;;;;;5024255;28;20042;-86
2022/07/05 08:02:37;;;;;;;5.28;1.88;;;;;;;;;;5022827;28;20132;-86
2022/07/05 08:05:04;;;;;;;4.88;2.60;;;;;;;;;;5028620;28;20018;-79
2022/07/05 08:07:30;;;;;;;2.28;1.63;;;;;;;;;;5025044;28;20032;-78
2022/07/05 08:09:55;;;;;;;4.65;2.22;;;;;;;;;;5016294;28;20026;-78
2022/07/05 08:12:20;;;;;;;3.95;1.80;;;;;;;;;;5022528;28;20053;-85
2022/07/05 08:14:46;;;;;;;3.97;1.80;;;;;;;;;;5029328;28;20508;-78
2022/07/05 08:17:12;;;;;;;3.92;1.67;;;;;;;;;;5029283;28;20495;-86
2022/07/05 08:22:22;;;;;;;4.68;1.70;;;;;;;;;;5033583;28;20112;-80
2022/07/05 08:24:47;;;;;;;3.42;1.90;;;;;;;;;;5032308;28;20107;-80
2022/07/05 08:27:13;;;;;;;3.70;2.10;;;;;;;;;;5012133;28;20079;-81
2022/07/05 08:29:38;;;;;;;7.78;2.42;;;;;;;;;;5007285;28;20163;-85
2022/07/05 08:32:03;;;;;;;5.30;2.78;;;;;;;;;;5028548;28;20674;-86
2022/07/05 08:34:29;;;;;;;6.05;2.55;;;;;;;;;;5031390;28;20125;-78
2022/07/05 08:36:54;;;;;;;4.65;2.15;;;;;;;;;;5009204;28;20028;-84
2022/07/05 08:39:19;;;;;;;5.95;2.30;;;;;;;;;;5009012;28;20548;-78
2022/07/05 08:41:48;;;;;;;3.78;1.77;;;;;;;;;;5031197;28;21533;-79
2022/07/05 08:44:15;;;;;;;3.60;1.85;;;;;;;;;;5035396;28;20028;-79
2022/07/05 08:46:40;;;;;;;8.02;2.00;;;;;;;;;;5017922;28;20040;-83
2022/07/05 08:49:06;;;;;;;2.88;1.67;;;;;;;;;;5010307;28;20025;-84
2022/07/05 08:51:38;;;;;;;3.15;1.95;;;;;;;;;;5010457;28;20381;-78
2022/07/05 08:54:03;;;;;;;3.47;2.05;;;;;;;;;;5031077;28;20064;-78
2022/07/05 08:56:28;;;;;;;8.90;2.38;;;;;;;;;;5026966;28;20033;-78
2022/07/05 08:58:54;;;;;;;8.43;2.20;;;;;;;;;;5035028;28;20032;-78
2022/07/05 09:01:19;;;;;;;5.22;2.03;;;;;;;;;;5030772;28;20033;-84
2022/07/05 09:03:48;;;;;;;4.85;2.72;;;;;;;;;;5025371;28;20046;-78
2022/07/05 09:06:21;;;;;;;3.20;1.85;;;;;;;;;;5006111;28;20662;-78
2022/07/05 09:08:47;;;;;;;5.18;2.20;;;;;;;;;;5021945;28;20036;-78
2022/07/05 09:11:14;;;;;;;5.00;2.03;;;;;;;;;;5020334;28;20062;-84
2022/07/05 09:13:43;;;;;;;1.73;1.40;;;;;;;;;;5023898;28;20041;-79
2022/07/05 09:16:09;;;;;;;2.05;1.77;;;;;;;;;;5025285;28;20080;-86
2022/07/05 09:18:45;;;;;;;3.67;1.80;;;;;;;;;;5021886;28;20087;-78
2022/07/05 09:21:13;;;;;;;3.95;1.70;;;;;;;;;;5023886;28;20498;-79
2022/07/05 09:23:38;;;;;;;2.03;1.50;;;;;;;;;;5006833;28;20068;-78
2022/07/05 09:26:04;;;;;;;11.05;2.65;;;;;;;;;;4999623;28;20017;-84
2022/07/05 09:28:29;;;;;;;6.38;1.90;;;;;;;;;;5025342;28;20033;-78
2022/07/05 09:30:54;;;;;;;2.92;1.48;;;;;;;;;;5011422;28;20033;-78
2022/07/05 09:33:22;;;;;;;1.70;1.48;;;;;;;;;;5023352;28;20022;-78
2022/07/05 09:35:54;;;;;;;3.10;1.42;;;;;;;;;;5025622;28;20045;-85
2022/07/05 09:38:20;;;;;;;2.42;1.50;;;;;;;;;;5020806;28;20512;-79
2022/07/05 09:40:49;;;;;;;3.00;1.33;;;;;;;;;;5025805;28;20087;-79
2022/07/05 09:43:21;;;;;;;2.33;1.38;;;;;;;;;;5003347;28;20384;-79
2022/07/05 09:45:53;;;;;;;4.57;1.70;;;;;;;;;;5024591;28;20543;-79
2022/07/05 09:48:19;;;;;;;7.00;2.03;;;;;;;;;;5020132;28;20048;-80
2022/07/05 09:50:45;;;;;;;5.88;2.00;;;;;;;;;;5007498;28;20018;-86
2022/07/05 09:53:11;;;;;;;3.45;1.48;;;;;;;;;;5023608;28;20049;-82
2022/07/05 09:55:37;;;;;;;3.08;1.45;;;;;;;;;;5020903;28;20424;-85
2022/07/05 09:58:02;;;;;;;3.70;1.80;;;;;;;;;;5023707;28;20036;-84
2022/07/05 10:00:28;;;;;;;2.53;1.30;;;;;;;;;;5005373;28;20572;-85
2022/07/05 10:02:58;;;;;;;5.25;1.88;;;;;;;;;;5021433;28;20045;-79
2022/07/05 10:05:24;;;;;;;5.57;2.15;;;;;;;;;;5022437;28;20033;-83
2022/07/05 10:07:53;;;;;;;1.85;1.40;;;;;;;;;;5027530;28;20033;-79
2022/07/05 10:10:23;;;;;;;4.45;1.63;;;;;;;;;;5019488;28;20025;-79
2022/07/05 10:12:50;;;;;;;4.63;1.35;;;;;;;;;;5019812;28;20040;-85
2022/07/05 10:15:16;;;;;;;3.58;1.67;;;;;;;;;;5022317;28;20033;-79
2022/07/05 10:17:44;;;;;;;4.75;1.80;;;;;;;;;;5005006;28;20053;-78
2022/07/05 10:20:12;;;;;;;5.10;1.40;;;;;;;;;;5020021;28;20029;-84
2022/07/05 10:22:38;;;;;;;5.13;2.40;;;;;;;;;;5022932;28;20030;-83
2022/07/05 10:25:04;;;;;;;4.22;1.67;;;;;;;;;;5021528;28;20030;-84
2022/07/05 10:27:31;;;;;;;7.55;2.75;;;;;;;;;;5005865;28;20033;-78
2022/07/05 10:29:56;;;;;;;4.82;2.05;;;;;;;;;;5026165;28;20473;-85
2022/07/05 10:32:22;;;;;;;4.05;1.77;;;;;;;;;;5004635;28;20033;-83
2022/07/05 10:34:48;;;;;;;5.30;1.70;;;;;;;;;;5025478;28;20029;-79
2022/07/05 10:37:13;;;;;;;5.22;2.28;;;;;;;;;;5000289;28;20022;-78
2022/07/05 10:39:39;;;;;;;3.85;2.15;;;;;;;;;;5002781;28;20128;-79
2022/07/05 10:42:05;;;;;;;6.75;2.30;;;;;;;;;;5006170;28;20021;-84
2022/07/05 10:44:31;;;;;;;3.67;1.98;;;;;;;;;;5005335;28;20057;-79
2022/07/05 10:47:06;;;;;;;3.63;1.75;;;;;;;;;;4999205;28;20018;-79
2022/07/05 10:49:35;;;;;;;4.80;1.90;;;;;;;;;;5022325;28;20087;-85
2022/07/05 10:52:04;;;;;;;6.68;2.22;;;;;;;;;;5028900;28;20083;-78
2022/07/05 10:54:29;;;;;;;4.70;2.20;;;;;;;;;;5006083;28;20099;-85
2022/07/05 10:57:13;;;;;;;6.72;2.30;;;;;;;;;;5026786;28;22284;-78
2022/07/05 10:59:57;;;;;;;6.03;2.40;;;;;;;;;;5023360;28;20040;-79
2022/07/05 11:02:22;;;;;;;5.07;2.20;;;;;;;;;;5000342;28;20405;-79
2022/07/05 11:04:47;;;;;;;3.85;2.13;;;;;;;;;;5002806;28;20026;-85
2022/07/05 11:07:12;;;;;;;9.68;2.20;;;;;;;;;;5020961;28;20018;-84
2022/07/05 11:09:57;;;;;;;4.43;1.83;;;;;;;;;;5003775;28;20080;-85
2022/07/05 11:12:34;;;;;;;2.33;1.85;;;;;;;;;;5011562;28;20053;-78
2022/07/05 11:15:08;;;;;;;5.38;2.03;;;;;;;;;;4992993;28;20026;-78
2022/07/05 11:17:36;;;;;;;2.80;1.75;;;;;;;;;;5003678;28;20028;-79
2022/07/05 11:20:25;;;;;;;6.80;1.85;;;;;;;;;;5020027;28;20054;-83
2022/07/05 11:23:04;;;;;;;6.57;2.08;;;;;;;;;;5006199;28;20026;-84
2022/07/05 11:25:31;;;;;;;2.90;2.15;;;;;;;;;;5002679;28;20022;-84
2022/07/05 11:28:06;;;;;;;4.45;3.10;;;;;;;;;;5020967;28;20494;-84
2022/07/05 11:30:46;;;;;;;3.38;1.67;;;;;;;;;;5019197;28;20034;-78
2022/07/05 11:33:28;;;;;;;5.78;1.90;;;;;;;;;;5007931;28;20029;-84
2022/07/05 11:35:53;;;;;;;5.32;2.33;;;;;;;;;;5016784;28;20384;-85
2022/07/05 11:38:19;;;;;;;4.15;2.38;;;;;;;;;;5010096;28;20116;-78
2022/07/05 11:40:44;;;;;;;9.18;2.20;;;;;;;;;;5005880;28;20062;-77
2022/07/05 11:43:10;;;;;;;3.07;2.33;;;;;;;;;;5002513;28;20030;-78
2022/07/05 11:45:35;;;;;;;6.70;1.70;;;;;;;;;;5004310;28;20703;-84
2022/07/05 11:48:01;;;;;;;4.20;1.90;;;;;;;;;;5019518;28;20025;-85
2022/07/05 11:50:28;;;;;;;4.28;1.70;;;;;;;;;;5008062;28;20034;-78
2022/07/05 11:52:53;;;;;;;6.55;2.35;;;;;;;;;;5021940;28;20036;-85
2022/07/05 11:55:19;;;;;;;4.18;1.63;;;;;;;;;;5006026;28;20025;-78
2022/07/05 11:57:49;;;;;;;5.55;1.70;;;;;;;;;;5007739;28;20049;-78
2022/07/05 12:00:24;;;;;;;4.28;1.60;;;;;;;;;;5004787;28;20021;-78
2022/07/05 12:02:50;;;;;;;3.22;1.52;;;;;;;;;;5014601;28;20884;-85
2022/07/05 12:05:15;;;;;;;6.93;1.75;;;;;;;;;;5030383;28;20108;-78
2022/07/05 12:07:48;;;;;;;3.28;1.20;;;;;;;;;;5026431;28;20105;-83
2022/07/05 12:13:03;;;;;;;4.57;1.35;;;;;;;;;;5027120;28;20036;-81
2022/07/05 12:15:28;;;;;;;1.42;1.30;;;;;;;;;;5003519;28;20497;-78
2022/07/05 12:17:55;;;;;;;5.45;1.30;;;;;;;;;;5004583;28;20033;-84
2022/07/05 12:20:22;;;;;;;2.78;1.20;;;;;;;;;;5006631;28;20040;-79
2022/07/05 12:22:47;;;;;;;3.78;1.60;;;;;;;;;;5004345;28;20033;-84
2022/07/05 12:25:15;;;;;;;5.18;1.75;;;;;;;;;;5003430;28;20103;-77
2022/07/05 12:27:44;;;;;;;2.97;1.17;;;;;;;;;;5008688;28;20083;-81
2022/07/05 12:30:10;;;;;;;3.00;1.10;;;;;;;;;;5023070;28;20040;-83
2022/07/05 12:32:54;;;;;;;3.08;1.00;;;;;;;;;;5008849;28;20021;-78
2022/07/05 12:35:32;;;;;;;2.60;1.35;;;;;;;;;;5024298;28;20488;-83
2022/07/05 12:38:01;;;;;;;4.47;1.30;;;;;;;;;;5019902;28;20021;-84
2022/07/05 12:40:27;;;;;;;2.90;1.73;;;;;;;;;;5019964;28;20025;-78
2022/07/05 12:43:05;;;;;;;4.00;1.00;;;;;;;;;;5010049;28;20385;-82
2022/07/05 12:45:30;;;;;;;1.58;1.05;;;;;;;;;;5026842;28;20024;-83
2022/07/05 12:47:56;;;;;;;3.20;1.25;;;;;;;;;;5027259;28;20017;-84
2022/07/05 12:50:24;;;;;;;2.05;1.13;;;;;;;;;;5010921;28;20021;-82
2022/07/05 12:58:01;;;;;;;2.50;1.60;;;;;;;;;;5025174;28;20021;-77
2022/07/05 12:58:46;;;;;;;3.47;1.20;;;;;;;;;;5027951;28;20039;-78
2022/07/05 13:01:20;;;;;;;5.78;1.08;;;;;;;;;;5023546;28;20021;-77
2022/07/05 13:03:55;;;;;;;2.13;1.20;;;;;;;;;;5024391;28;20055;-77
2022/07/05 13:06:20;;;;;;;4.75;1.20;;;;;;;;;;5027204;28;20105;-78
2022/07/05 13:08:56;;;;;;;4.10;1.10;;;;;;;;;;5023656;28;20718;-83
2022/07/05 13:11:30;;;;;;;6.70;1.45;;;;;;;;;;5025879;28;20021;-84
2022/07/05 13:13:56;;;;;;;6.28;1.48;;;;;;;;;;5020596;28;20734;-84
2022/07/05 13:16:24;;;;;;;3.75;2.55;;;;;;;;;;5003065;28;20025;-84
2022/07/05 13:18:49;;;;;;;4.45;1.13;;;;;;;;;;5018325;28;20029;-84
2022/07/05 13:21:14;;;;;;;2.42;1.05;;;;;;;;;;5021732;28;20013;-77
2022/07/05 13:23:40;;;;;;;2.75;1.88;;;;;;;;;;5022417;28;20040;-82
2022/07/05 13:26:06;;;;;;;3.22;1.40;;;;;;;;;;5020743;28;20033;-84
2022/07/05 13:28:31;;;;;;;7.05;1.38;;;;;;;;;;5008070;28;20390;-76
2022/07/05 13:30:56;;;;;;;3.63;1.67;;;;;;;;;;5003441;28;20026;-83
2022/07/05 13:33:22;;;;;;;4.77;2.23;;;;;;;;;;5022890;28;20180;-84
2022/07/05 13:35:47;;;;;;;3.42;1.52;;;;;;;;;;5025140;28;20773;-77
2022/07/05 13:38:12;;;;;;;3.53;1.50;;;;;;;;;;5008592;28;20035;-77
2022/07/05 13:40:37;;;;;;;1.50;1.40;;;;;;;;;;5021221;28;20021;-86
2022/07/05 13:43:02;;;;;;;2.87;1.47;;;;;;;;;;5022614;28;20408;-84
2022/07/05 13:45:29;;;;;;;2.33;1.27;;;;;;;;;;5017027;28;20271;-84
2022/07/05 13:47:57;;;;;;;3.95;1.95;;;;;;;;;;5023477;28;20045;-86
2022/07/05 13:50:31;;;;;;;4.45;1.30;;;;;;;;;;5021332;28;20040;-83
2022/07/05 13:52:57;;;;;;;2.35;1.35;;;;;;;;;;5020571;28;20045;-83
2022/07/05 13:55:22;;;;;;;5.20;1.38;;;;;;;;;;5029956;28;20389;-84
2022/07/05 13:57:47;;;;;;;3.13;1.40;;;;;;;;;;5008749;28;20109;-87
2022/07/05 14:00:13;;;;;;;3.25;1.50;;;;;;;;;;5025833;28;20021;-78
2022/07/05 14:02:38;;;;;;;4.05;1.55;;;;;;;;;;5025432;28;20042;-85
2022/07/05 14:05:03;;;;;;;2.58;1.30;;;;;;;;;;5019850;28;21370;-78
2022/07/05 14:07:29;;;;;;;4.28;1.30;;;;;;;;;;5021098;28;20037;-84
2022/07/05 14:09:54;;;;;;;3.65;1.30;;;;;;;;;;5026551;28;20128;-78
2022/07/05 14:12:19;;;;;;;3.38;1.50;;;;;;;;;;5022216;28;20037;-83
2022/07/05 14:14:44;;;;;;;5.43;2.30;;;;;;;;;;5024471;28;20030;-77
2022/07/05 14:17:13;;;;;;;3.47;1.30;;;;;;;;;;5020756;28;20039;-78
2022/07/05 14:19:38;;;;;;;2.10;1.10;;;;;;;;;;5001564;28;20036;-78
2022/07/05 14:22:03;;;;;;;4.15;1.40;;;;;;;;;;5025320;28;20025;-77
2022/07/05 14:24:30;;;;;;;3.75;1.45;;;;;;;;;;5022986;28;20136;-78
2022/07/05 14:26:55;;;;;;;2.10;1.42;;;;;;;;;;5019234;28;20116;-82
2022/07/05 14:29:20;;;;;;;3.85;1.27;;;;;;;;;;5007597;28;20029;-84
2022/07/05 14:31:48;;;;;;;3.42;1.20;;;;;;;;;;5021646;28;20045;-77
2022/07/05 14:34:14;;;;;;;7.05;1.48;;;;;;;;;;4998243;28;20033;-78
2022/07/05 14:36:39;;;;;;;5.07;1.38;;;;;;;;;;5009624;28;20119;-84
2022/07/05 14:39:04;;;;;;;2.08;1.20;;;;;;;;;;5002715;28;20030;-84
2022/07/05 14:41:29;;;;;;;3.00;0.98;;;;;;;;;;5019434;28;20412;-77
2022/07/05 14:43:55;;;;;;;2.08;0.85;;;;;;;;;;5008622;28;20025;-84
2022/07/05 14:46:20;;;;;;;5.55;1.25;;;;;;;;;;5028958;28;20030;-77
2022/07/05 14:48:46;;;;;;;4.85;1.30;;;;;;;;;;5008762;28;20554;-84
2022/07/05 14:51:11;;;;;;;4.38;1.15;;;;;;;;;;5027150;28;20029;-76